Time;durP1;ratioP1;P1;durP2;ratioP2;P2;SDS_P1;SDS_P2;PMS_P1;PMS_P2;Temp;Humidity;BMP_temperature;BMP_pressure;BME280_temperature;BME280_humidity;BME280_pressure;Samples;Min_cycle;Max_cycle;Signal;HPM_P1;HPM_P2
2022/01/30 00:03:29;;;;;;;0.93;0.43;;;;;;;;;;10319665;28;20125;-73
2022/01/30 00:08:34;;;;;;;1.90;0.50;;;;;;;;;;10319995;28;20050;-73
2022/01/30 00:13:37;;;;;;;1.13;0.70;;;;;;;;;;10321545;28;20046;-72
2022/01/30 00:18:49;;;;;;;1.53;0.73;;;;;;;;;;10318000;28;20041;-73
2022/01/30 00:24:00;;;;;;;0.82;0.55;;;;;;;;;;10318560;28;20113;-72
2022/01/30 00:29:04;;;;;;;0.50;0.35;;;;;;;;;;10319609;28;20030;-73
2022/01/30 00:34:07;;;;;;;0.93;0.63;;;;;;;;;;10319002;28;20240;-73
2022/01/30 00:39:11;;;;;;;0.70;0.70;;;;;;;;;;10319504;28;20686;-73
2022/01/30 00:44:15;;;;;;;0.75;0.40;;;;;;;;;;10319190;28;20456;-74
2022/01/30 00:49:18;;;;;;;0.82;0.60;;;;;;;;;;10319412;28;20038;-73
2022/01/30 00:54:22;;;;;;;2.72;0.77;;;;;;;;;;10318469;28;20035;-73
2022/01/30 00:59:25;;;;;;;1.35;0.70;;;;;;;;;;10309834;28;20113;-74
2022/01/30 01:04:28;;;;;;;1.80;1.13;;;;;;;;;;10310164;28;20129;-73
2022/01/30 01:09:37;;;;;;;1.02;0.65;;;;;;;;;;10316928;28;20522;-75
2022/01/30 01:25:23;;;;;;;0.85;0.68;;;;;;;;;;10305231;28;20038;-74
2022/01/30 01:30:26;;;;;;;1.15;0.90;;;;;;;;;;10317010;28;20081;-72
2022/01/30 01:35:29;;;;;;;0.60;0.50;;;;;;;;;;10304795;28;20129;-75
2022/01/30 01:40:34;;;;;;;1.38;0.38;;;;;;;;;;10316257;28;20030;-74
2022/01/30 01:45:40;;;;;;;0.70;0.63;;;;;;;;;;10317423;28;20182;-74
2022/01/30 01:50:50;;;;;;;0.30;0.28;;;;;;;;;;10316852;28;20136;-75
2022/01/30 01:55:55;;;;;;;0.20;0.20;;;;;;;;;;10308570;28;20530;-73
2022/01/30 02:01:00;;;;;;;0.45;0.40;;;;;;;;;;10309830;28;20053;-73
2022/01/30 02:06:06;;;;;;;1.40;0.28;;;;;;;;;;10304866;28;20126;-74
2022/01/30 02:11:14;;;;;;;0.63;0.60;;;;;;;;;;10302713;28;20030;-75
2022/01/30 02:27:32;;;;;;;0.20;0.20;;;;;;;;;;10320473;28;20457;-74
2022/01/30 02:32:35;;;;;;;0.50;0.40;;;;;;;;;;10320579;28;20096;-73
2022/01/30 02:37:38;;;;;;;1.23;0.50;;;;;;;;;;10321277;28;20499;-73
2022/01/30 02:42:47;;;;;;;0.63;0.35;;;;;;;;;;10321427;28;20042;-73
2022/01/30 02:47:58;;;;;;;0.40;0.30;;;;;;;;;;10319063;28;20043;-74
2022/01/30 02:53:05;;;;;;;1.05;0.55;;;;;;;;;;10310942;28;20063;-73
2022/01/30 02:58:10;;;;;;;0.60;0.52;;;;;;;;;;10321151;28;20108;-73
2022/01/30 03:03:13;;;;;;;0.82;0.60;;;;;;;;;;10320882;28;20365;-74
2022/01/30 03:08:16;;;;;;;0.47;0.43;;;;;;;;;;10322625;28;20121;-73
2022/01/30 03:13:21;;;;;;;0.20;0.20;;;;;;;;;;10323327;28;20026;-73
2022/01/30 03:18:25;;;;;;;0.57;0.57;;;;;;;;;;10318933;28;20035;-74
2022/01/30 03:23:29;;;;;;;0.68;0.52;;;;;;;;;;10308993;28;20058;-72
2022/01/30 03:28:34;;;;;;;0.43;0.43;;;;;;;;;;10320681;28;20456;-74
2022/01/30 03:33:38;;;;;;;0.30;0.30;;;;;;;;;;10320736;28;20402;-74
2022/01/30 03:38:41;;;;;;;0.20;0.20;;;;;;;;;;10322542;28;20038;-72
2022/01/30 03:43:46;;;;;;;0.70;0.63;;;;;;;;;;10320416;28;20072;-74
2022/01/30 03:48:49;;;;;;;0.73;0.52;;;;;;;;;;10321559;28;20506;-74
2022/01/30 03:53:52;;;;;;;0.70;0.60;;;;;;;;;;10321225;28;20030;-73
2022/01/30 03:58:57;;;;;;;0.13;0.10;;;;;;;;;;10318567;28;20038;-73
2022/01/30 04:04:01;;;;;;;0.40;0.35;;;;;;;;;;10321296;28;20092;-74
2022/01/30 04:09:05;;;;;;;2.30;0.83;;;;;;;;;;10318655;28;20100;-74
2022/01/30 04:14:10;;;;;;;0.80;0.57;;;;;;;;;;10319457;28;20109;-74
2022/01/30 04:19:13;;;;;;;0.68;0.32;;;;;;;;;;10324739;28;20521;-74
2022/01/30 04:24:17;;;;;;;0.60;0.38;;;;;;;;;;10317738;28;20038;-72
2022/01/30 04:29:22;;;;;;;0.40;0.40;;;;;;;;;;10321267;28;20079;-73
2022/01/30 04:34:26;;;;;;;0.43;0.40;;;;;;;;;;10313804;28;20084;-75
2022/01/30 04:39:50;;;;;;;;;;;;;;;;;;10317248;28;20031;-73
2022/01/30 04:56:31;;;;;;;0.73;0.60;;;;;;;;;;10316320;28;20491;-73
2022/01/30 05:01:49;;;;;;;;;;;;;;;;;;10314841;28;20708;-74
2022/01/30 05:07:26;;;;;;;0.83;0.50;;;;;;;;;;10318688;28;20221;-75
2022/01/30 05:12:18;;;;;;;1.80;1.20;;;;;;;;;;10314959;28;20031;-73
2022/01/30 05:17:22;;;;;;;2.90;0.90;;;;;;;;;;10317300;28;20651;-77
2022/01/30 05:22:27;;;;;;;1.67;1.08;;;;;;;;;;10315643;28;20049;-72
2022/01/30 05:27:30;;;;;;;1.25;0.73;;;;;;;;;;10316844;28;20030;-75
2022/01/30 05:32:33;;;;;;;1.37;1.03;;;;;;;;;;10317245;28;20043;-75
2022/01/30 05:37:42;;;;;;;2.25;0.95;;;;;;;;;;10315587;28;20085;-73
2022/01/30 05:42:47;;;;;;;1.08;0.95;;;;;;;;;;10315208;28;20116;-74
2022/01/30 05:47:57;;;;;;;1.75;0.85;;;;;;;;;;10321533;28;20058;-74
2022/01/30 05:53:01;;;;;;;2.53;1.20;;;;;;;;;;10321928;28;20049;-75
2022/01/30 05:58:05;;;;;;;3.57;1.23;;;;;;;;;;10322554;28;20035;-73
2022/01/30 06:03:07;;;;;;;1.08;0.50;;;;;;;;;;10316055;28;20124;-75
2022/01/30 06:08:38;;;;;;;1.23;0.80;;;;;;;;;;10322537;28;20077;-74
2022/01/30 06:13:40;;;;;;;3.67;1.52;;;;;;;;;;10321719;28;20360;-75
2022/01/30 06:18:44;;;;;;;2.63;1.60;;;;;;;;;;10310792;28;20061;-75
2022/01/30 06:23:48;;;;;;;0.83;0.50;;;;;;;;;;10322710;28;20073;-74
2022/01/30 06:28:50;;;;;;;;;;;;;;;;;;10321868;28;20038;-73
2022/01/30 06:33:53;;;;;;;0.90;0.73;;;;;;;;;;10318943;28;20008;-74
2022/01/30 06:38:58;;;;;;;1.80;0.70;;;;;;;;;;10317116;28;20054;-73
2022/01/30 06:44:01;;;;;;;1.57;1.00;;;;;;;;;;10320232;28;20575;-74
2022/01/30 06:49:04;;;;;;;1.97;1.53;;;;;;;;;;10319876;28;20042;-75
2022/01/30 06:54:08;;;;;;;4.27;2.10;;;;;;;;;;10328273;28;20435;-73
2022/01/30 06:59:12;;;;;;;3.37;2.03;;;;;;;;;;10319533;28;20081;-73
2022/01/30 07:04:15;;;;;;;3.30;1.63;;;;;;;;;;10322082;28;20101;-77
2022/01/30 07:09:19;;;;;;;1.07;0.77;;;;;;;;;;10320159;28;20058;-74
2022/01/30 07:14:22;;;;;;;1.43;1.10;;;;;;;;;;10320611;28;20136;-74
2022/01/30 07:19:26;;;;;;;2.08;1.50;;;;;;;;;;10319799;28;20046;-75
2022/01/30 07:24:30;;;;;;;1.33;0.70;;;;;;;;;;10321025;28;20030;-74
2022/01/30 07:29:33;;;;;;;1.70;1.10;;;;;;;;;;10314729;28;20049;-75
2022/01/30 07:34:36;;;;;;;0.80;0.60;;;;;;;;;;10319996;28;20072;-74
2022/01/30 07:39:40;;;;;;;1.10;0.63;;;;;;;;;;10317399;28;20060;-73
2022/01/30 07:44:43;;;;;;;1.77;1.00;;;;;;;;;;10317600;28;20030;-73
2022/01/30 07:49:52;;;;;;;1.17;0.80;;;;;;;;;;10317143;28;20129;-74
2022/01/30 07:54:57;;;;;;;1.83;0.70;;;;;;;;;;10301671;28;20470;-74
2022/01/30 08:00:00;;;;;;;1.60;1.02;;;;;;;;;;10301241;28;20061;-74
2022/01/30 08:05:03;;;;;;;2.03;0.88;;;;;;;;;;10313669;28;20419;-74
2022/01/30 08:10:08;;;;;;;5.35;1.33;;;;;;;;;;10316899;28;20418;-73
2022/01/30 08:15:11;;;;;;;2.78;0.85;;;;;;;;;;10317668;28;20048;-72
2022/01/30 08:20:14;;;;;;;4.60;1.50;;;;;;;;;;10312723;28;20081;-72
2022/01/30 08:25:19;;;;;;;4.73;1.50;;;;;;;;;;10311753;28;20039;-72
2022/01/30 08:30:22;;;;;;;1.38;0.90;;;;;;;;;;10314720;28;20062;-73
2022/01/30 08:35:26;;;;;;;5.22;1.20;;;;;;;;;;10318864;28;20034;-74
2022/01/30 08:40:30;;;;;;;1.30;0.70;;;;;;;;;;10315789;28;20057;-72
2022/01/30 08:45:33;;;;;;;1.65;0.68;;;;;;;;;;10317972;28;20030;-74
2022/01/30 08:50:36;;;;;;;1.17;0.50;;;;;;;;;;10317730;28;20502;-73
2022/01/30 08:55:40;;;;;;;1.85;0.75;;;;;;;;;;10316783;28;21402;-73
2022/01/30 09:00:44;;;;;;;2.22;0.90;;;;;;;;;;10315688;28;20066;-72
2022/01/30 09:05:47;;;;;;;1.13;0.80;;;;;;;;;;10318402;28;20133;-72
2022/01/30 09:10:52;;;;;;;0.98;0.75;;;;;;;;;;10316383;28;20069;-74
2022/01/30 09:15:57;;;;;;;1.60;0.70;;;;;;;;;;10315420;28;20769;-75
2022/01/30 09:21:00;;;;;;;2.25;1.33;;;;;;;;;;10316135;28;20143;-73
2022/01/30 09:26:04;;;;;;;0.70;0.70;;;;;;;;;;10316517;28;20470;-72
2022/01/30 09:31:07;;;;;;;1.25;0.90;;;;;;;;;;10317541;28;20309;-71
2022/01/30 09:36:10;;;;;;;1.42;0.55;;;;;;;;;;10316839;28;20045;-73
2022/01/30 09:41:15;;;;;;;5.72;1.75;;;;;;;;;;10314941;28;20034;-73
2022/01/30 09:46:19;;;;;;;4.25;1.30;;;;;;;;;;10316477;28;20058;-73
2022/01/30 09:51:22;;;;;;;6.53;1.58;;;;;;;;;;10313991;28;20052;-74
2022/01/30 09:56:26;;;;;;;3.50;1.25;;;;;;;;;;10316079;28;20065;-73
2022/01/30 10:01:30;;;;;;;2.80;1.17;;;;;;;;;;10315475;28;20522;-74
2022/01/30 10:06:48;;;;;;;3.05;1.25;;;;;;;;;;10315948;28;20045;-75
2022/01/30 10:12:01;;;;;;;6.78;1.55;;;;;;;;;;10302689;28;20049;-74
2022/01/30 10:17:04;;;;;;;2.90;1.98;;;;;;;;;;10314186;28;20423;-74
2022/01/30 10:22:08;;;;;;;3.03;1.63;;;;;;;;;;10314416;28;20051;-73
2022/01/30 10:27:21;;;;;;;4.05;1.70;;;;;;;;;;10313458;28;20039;-73
2022/01/30 10:32:24;;;;;;;3.93;1.47;;;;;;;;;;10314463;28;20122;-73
2022/01/30 10:37:27;;;;;;;4.88;1.85;;;;;;;;;;10323008;28;20041;-73
2022/01/30 10:42:35;;;;;;;4.18;1.63;;;;;;;;;;10322251;28;20461;-72
2022/01/30 10:47:40;;;;;;;2.45;1.60;;;;;;;;;;10321199;28;20062;-75
2022/01/30 10:52:50;;;;;;;2.25;1.45;;;;;;;;;;10315624;28;20527;-73
2022/01/30 10:57:58;;;;;;;3.92;1.38;;;;;;;;;;10312876;28;20034;-73
2022/01/30 11:03:01;;;;;;;4.43;1.20;;;;;;;;;;10322112;28;20034;-75
2022/01/30 11:08:05;;;;;;;2.13;1.40;;;;;;;;;;10320776;28;20057;-73
2022/01/30 11:13:14;;;;;;;1.75;1.00;;;;;;;;;;10321791;28;20094;-74
2022/01/30 11:18:17;;;;;;;6.90;2.38;;;;;;;;;;10325153;28;20042;-76
2022/01/30 11:23:23;;;;;;;3.75;1.50;;;;;;;;;;10339220;28;20059;-75
2022/01/30 11:28:28;;;;;;;6.80;2.20;;;;;;;;;;10339060;28;20038;-75
2022/01/30 11:33:31;;;;;;;4.75;2.28;;;;;;;;;;10342480;28;20042;-74
2022/01/30 11:38:37;;;;;;;4.38;1.40;;;;;;;;;;10339937;28;20045;-74
2022/01/30 11:43:43;;;;;;;3.70;1.05;;;;;;;;;;10321281;28;20118;-74
2022/01/30 11:49:06;;;;;;;2.53;1.85;;;;;;;;;;10318927;28;20038;-74
2022/01/30 11:54:24;;;;;;;3.63;1.40;;;;;;;;;;10325833;28;20117;-74
2022/01/30 11:59:39;;;;;;;2.65;1.70;;;;;;;;;;10313348;28;20050;-75
2022/01/30 12:04:53;;;;;;;2.42;1.50;;;;;;;;;;10319143;28;20038;-73
2022/01/30 12:10:32;;;;;;;2.75;1.30;;;;;;;;;;10320604;28;20034;-73
2022/01/30 12:15:37;;;;;;;4.65;2.25;;;;;;;;;;10321067;28;20610;-73
2022/01/30 12:20:54;;;;;;;2.13;1.50;;;;;;;;;;10308060;28;20145;-73
2022/01/30 12:26:03;;;;;;;8.15;1.90;;;;;;;;;;10308753;28;20113;-74
2022/01/30 12:31:21;;;;;;;2.75;1.50;;;;;;;;;;10314333;28;20253;-74
2022/01/30 12:36:26;;;;;;;4.30;2.05;;;;;;;;;;10317936;28;20030;-73
2022/01/30 12:41:30;;;;;;;6.72;1.77;;;;;;;;;;10311454;28;20634;-76
2022/01/30 12:46:39;;;;;;;4.65;1.92;;;;;;;;;;10311210;28;20030;-76
2022/01/30 12:51:48;;;;;;;0.93;0.93;;;;;;;;;;10317531;28;20057;-75
2022/01/30 12:56:51;;;;;;;5.35;2.17;;;;;;;;;;10316056;28;20031;-77
2022/01/30 13:02:02;;;;;;;2.85;1.33;;;;;;;;;;10312232;28;20447;-75
2022/01/30 13:07:12;;;;;;;6.68;2.25;;;;;;;;;;10316683;28;20030;-76
2022/01/30 13:12:15;;;;;;;5.90;1.92;;;;;;;;;;10309603;28;20125;-75
2022/01/30 13:17:18;;;;;;;1.80;1.48;;;;;;;;;;10314420;28;20042;-75
2022/01/30 13:22:28;;;;;;;3.72;1.52;;;;;;;;;;10309877;28;20045;-74
2022/01/30 13:27:31;;;;;;;4.47;0.93;;;;;;;;;;10314689;28;20533;-76
2022/01/30 13:32:34;;;;;;;;;;;;;;;;;;10313425;28;20034;-75
2022/01/30 13:38:05;;;;;;;6.22;1.80;;;;;;;;;;10315195;28;20368;-75
2022/01/30 13:43:14;;;;;;;1.60;1.42;;;;;;;;;;10316320;28;20058;-75
2022/01/30 13:48:23;;;;;;;1.73;0.80;;;;;;;;;;10314140;28;20050;-77
2022/01/30 13:53:28;;;;;;;1.20;0.93;;;;;;;;;;10314562;28;20027;-74
2022/01/30 13:58:44;;;;;;;1.55;0.80;;;;;;;;;;10315224;28;20065;-75
2022/01/30 14:03:48;;;;;;;3.75;1.23;;;;;;;;;;10311708;28;20513;-77
2022/01/30 14:08:54;;;;;;;3.03;0.90;;;;;;;;;;10329730;28;20066;-77
2022/01/30 14:14:03;;;;;;;2.35;1.05;;;;;;;;;;10324172;28;20275;-76
2022/01/30 14:19:16;;;;;;;2.90;1.48;;;;;;;;;;10313697;28;20539;-76
2022/01/30 14:24:22;;;;;;;2.23;1.10;;;;;;;;;;10326618;28;20333;-77
2022/01/30 14:29:25;;;;;;;7.55;1.77;;;;;;;;;;10323329;28;20125;-75
2022/01/30 14:34:28;;;;;;;3.10;0.90;;;;;;;;;;10320545;28;20058;-77
2022/01/30 14:39:33;;;;;;;2.33;1.00;;;;;;;;;;10301512;28;20046;-76
2022/01/30 14:44:36;;;;;;;3.85;0.93;;;;;;;;;;10320421;28;20137;-75
2022/01/30 14:49:39;;;;;;;6.20;1.17;;;;;;;;;;10317472;28;20525;-75
2022/01/30 14:54:44;;;;;;;1.40;0.60;;;;;;;;;;10322453;28;20035;-75
2022/01/30 14:59:47;;;;;;;4.00;0.90;;;;;;;;;;10315179;28;20054;-75
2022/01/30 15:04:49;;;;;;;1.35;0.50;;;;;;;;;;10320123;28;20173;-75
2022/01/30 15:09:54;;;;;;;2.47;0.90;;;;;;;;;;10319741;28;20046;-75
2022/01/30 15:14:57;;;;;;;1.83;0.70;;;;;;;;;;10318579;28;20050;-74
2022/01/30 15:20:00;;;;;;;3.67;0.70;;;;;;;;;;10320012;28;20049;-74
2022/01/30 15:25:08;;;;;;;3.88;1.15;;;;;;;;;;10320394;28;20031;-74
2022/01/30 15:30:12;;;;;;;7.03;2.35;;;;;;;;;;10321133;28;20030;-75
2022/01/30 15:35:17;;;;;;;1.65;0.75;;;;;;;;;;10309723;28;20112;-75
2022/01/30 15:40:22;;;;;;;8.20;1.48;;;;;;;;;;10317265;28;20069;-75
2022/01/30 15:50:45;;;;;;;2.50;0.88;;;;;;;;;;10303414;28;20039;-75
2022/01/30 15:55:50;;;;;;;3.73;1.37;;;;;;;;;;10316153;28;20034;-74
2022/01/30 16:00:53;;;;;;;7.50;1.35;;;;;;;;;;10318998;28;20066;-75
2022/01/30 16:05:57;;;;;;;2.38;0.60;;;;;;;;;;10319307;28;20050;-74
2022/01/30 16:11:18;;;;;;;5.45;1.00;;;;;;;;;;10318341;28;20112;-74
2022/01/30 16:16:21;;;;;;;5.60;1.08;;;;;;;;;;10312569;28;21089;-75
2022/01/30 16:21:25;;;;;;;2.90;0.90;;;;;;;;;;10314924;28;20062;-76
2022/01/30 16:26:29;;;;;;;7.57;1.83;;;;;;;;;;10318076;28;20034;-77
2022/01/30 16:31:33;;;;;;;4.27;1.07;;;;;;;;;;10319705;28;20065;-77
2022/01/30 16:36:36;;;;;;;5.20;1.67;;;;;;;;;;10317372;28;20065;-78
2022/01/30 16:41:46;;;;;;;6.40;1.77;;;;;;;;;;10307061;28;20062;-75
2022/01/30 16:47:16;;;;;;;6.20;1.10;;;;;;;;;;10315380;28;20113;-75
2022/01/30 16:52:20;;;;;;;8.00;1.60;;;;;;;;;;10315332;28;20165;-75
2022/01/30 16:57:25;;;;;;;10.95;1.42;;;;;;;;;;10314341;28;20514;-74
2022/01/30 17:02:29;;;;;;;4.00;1.03;;;;;;;;;;10315812;28;20058;-74
2022/01/30 17:07:33;;;;;;;3.38;1.08;;;;;;;;;;10320599;28;20058;-75
2022/01/30 17:17:55;;;;;;;2.20;1.00;;;;;;;;;;10315978;28;20034;-75
2022/01/30 17:22:58;;;;;;;2.97;0.93;;;;;;;;;;10315750;28;20142;-74
2022/01/30 17:28:04;;;;;;;1.23;0.77;;;;;;;;;;10315558;28;20038;-74
2022/01/30 17:33:07;;;;;;;5.97;2.07;;;;;;;;;;10315013;28;20128;-76
2022/01/30 17:38:10;;;;;;;10.60;2.00;;;;;;;;;;10316733;28;20038;-74
2022/01/30 17:43:15;;;;;;;4.63;1.50;;;;;;;;;;10307933;28;20037;-74
2022/01/30 17:48:18;;;;;;;4.77;1.40;;;;;;;;;;10314967;28;20534;-75
2022/01/30 17:53:21;;;;;;;3.17;1.07;;;;;;;;;;10308425;28;20108;-74
2022/01/30 17:58:27;;;;;;;6.20;2.25;;;;;;;;;;10313962;28;20042;-74
2022/01/30 18:03:29;;;;;;;;;;;;;;;;;;10313865;28;20093;-75
2022/01/30 18:08:33;;;;;;;8.80;2.63;;;;;;;;;;10310810;28;19936;-76
2022/01/30 18:13:37;;;;;;;1.80;1.13;;;;;;;;;;10315452;28;20081;-75
2022/01/30 18:18:41;;;;;;;10.80;2.93;;;;;;;;;;10315474;28;20709;-75
2022/01/30 18:23:44;;;;;;;7.23;2.73;;;;;;;;;;10314996;28;20038;-74
2022/01/30 18:28:48;;;;;;;4.97;1.40;;;;;;;;;;10313757;28;20026;-77
2022/01/30 18:33:53;;;;;;;13.17;1.80;;;;;;;;;;10314443;28;20145;-74
2022/01/30 18:39:02;;;;;;;;;;;;;;;;;;10314748;28;20035;-74
2022/01/30 18:44:07;;;;;;;5.63;1.23;;;;;;;;;;10315432;28;19930;-76
2022/01/30 18:49:10;;;;;;;10.83;1.70;;;;;;;;;;10323190;28;20104;-76
2022/01/30 18:54:14;;;;;;;9.07;2.65;;;;;;;;;;10325136;28;20108;-74
2022/01/30 18:59:18;;;;;;;7.57;1.80;;;;;;;;;;10318016;28;20042;-74
2022/01/30 19:04:21;;;;;;;10.50;1.97;;;;;;;;;;10321125;28;20042;-74
2022/01/30 19:09:26;;;;;;;13.30;2.60;;;;;;;;;;10323523;28;20092;-75
2022/01/30 19:14:31;;;;;;;;;;;;;;;;;;10325501;28;20073;-74
2022/01/30 19:19:34;;;;;;;;;;;;;;;;;;10322946;28;19963;-76
2022/01/30 19:24:38;;;;;;;9.93;2.10;;;;;;;;;;10310258;28;20028;-74
2022/01/30 19:29:42;;;;;;;8.83;2.07;;;;;;;;;;10319924;28;20054;-75
2022/01/30 19:34:46;;;;;;;6.68;2.22;;;;;;;;;;10319637;28;20427;-75
2022/01/30 19:39:50;;;;;;;12.53;3.53;;;;;;;;;;10320300;28;20069;-76
2022/01/30 19:44:56;;;;;;;6.10;1.37;;;;;;;;;;10320599;28;20097;-76
2022/01/30 19:49:59;;;;;;;7.60;2.83;;;;;;;;;;10317985;28;20409;-76
2022/01/30 19:55:05;;;;;;;12.40;2.33;;;;;;;;;;10320976;28;20030;-75
2022/01/30 20:00:10;;;;;;;13.47;2.37;;;;;;;;;;10321477;28;20130;-75
2022/01/30 20:05:13;;;;;;;9.57;2.60;;;;;;;;;;10319445;28;20043;-76
2022/01/30 20:10:18;;;;;;;6.00;1.80;;;;;;;;;;10318586;28;20502;-76
2022/01/30 20:15:23;;;;;;;3.87;1.40;;;;;;;;;;10301085;28;20506;-76
2022/01/30 20:20:26;;;;;;;5.50;1.40;;;;;;;;;;10316378;28;20233;-76
2022/01/30 20:25:32;;;;;;;11.30;2.28;;;;;;;;;;10319862;28;20423;-75
2022/01/30 20:30:35;;;;;;;10.30;2.73;;;;;;;;;;10319045;28;20480;-73
2022/01/30 20:35:39;;;;;;;6.17;2.37;;;;;;;;;;10319182;28;20030;-74
2022/01/30 20:40:43;;;;;;;7.70;1.40;;;;;;;;;;10322772;28;20114;-73
2022/01/30 20:45:50;;;;;;;6.37;2.00;;;;;;;;;;10343097;28;20064;-76
2022/01/30 20:50:53;;;;;;;7.80;2.47;;;;;;;;;;10342891;28;20133;-77
2022/01/30 20:55:58;;;;;;;11.20;2.63;;;;;;;;;;10330538;28;20066;-74
2022/01/30 21:01:02;;;;;;;8.07;3.07;;;;;;;;;;10325963;28;20060;-75
2022/01/30 21:06:05;;;;;;;7.73;2.10;;;;;;;;;;10320424;28;20492;-72
2022/01/30 21:11:10;;;;;;;2.57;1.63;;;;;;;;;;10317470;28;20125;-75
2022/01/30 21:16:13;;;;;;;11.53;2.60;;;;;;;;;;10314932;28;20448;-76
2022/01/30 21:21:16;;;;;;;11.83;2.63;;;;;;;;;;10313068;28;20042;-75
2022/01/30 21:26:23;;;;;;;9.68;2.05;;;;;;;;;;10314272;28;20038;-75
2022/01/30 21:31:26;;;;;;;6.17;2.40;;;;;;;;;;10312224;28;20053;-76
2022/01/30 21:36:30;;;;;;;11.23;2.67;;;;;;;;;;10312804;28;20098;-73
2022/01/30 21:41:35;;;;;;;2.75;1.80;;;;;;;;;;10294445;28;20751;-73
2022/01/30 21:46:37;;;;;;;;;;;;;;;;;;10311619;28;20737;-74
2022/01/30 21:51:41;;;;;;;4.50;1.10;;;;;;;;;;10312417;28;20025;-74
2022/01/30 21:56:45;;;;;;;3.57;1.37;;;;;;;;;;10312287;28;20034;-74
2022/01/30 22:01:49;;;;;;;1.50;0.70;;;;;;;;;;10313928;28;20039;-77
2022/01/30 22:06:52;;;;;;;2.83;1.35;;;;;;;;;;10310190;28;20057;-75
2022/01/30 22:12:00;;;;;;;4.73;1.47;;;;;;;;;;10316137;28;20046;-75
2022/01/30 22:17:04;;;;;;;12.77;1.97;;;;;;;;;;10313270;28;20125;-74
2022/01/30 22:22:08;;;;;;;4.67;1.93;;;;;;;;;;10300515;28;20514;-76
2022/01/30 22:27:13;;;;;;;3.17;1.53;;;;;;;;;;10299557;28;20733;-75
2022/01/30 22:32:18;;;;;;;;;;;;;;;;;;10323649;28;20514;-75
2022/01/30 22:37:22;;;;;;;3.03;1.43;;;;;;;;;;10321172;28;20031;-73
2022/01/30 22:42:27;;;;;;;4.90;1.40;;;;;;;;;;10306196;28;20037;-73
2022/01/30 22:47:31;;;;;;;6.63;2.20;;;;;;;;;;10304721;28;20046;-75
2022/01/30 22:52:34;;;;;;;5.10;2.08;;;;;;;;;;10320338;28;20130;-75
2022/01/30 22:57:42;;;;;;;6.13;1.20;;;;;;;;;;10318951;28;20129;-72
2022/01/30 23:02:45;;;;;;;1.70;1.50;;;;;;;;;;10318462;28;20124;-72
2022/01/30 23:07:49;;;;;;;1.98;1.15;;;;;;;;;;10306398;28;20043;-76
2022/01/30 23:12:53;;;;;;;5.53;1.90;;;;;;;;;;10320147;28;20049;-74
2022/01/30 23:17:56;;;;;;;3.97;1.20;;;;;;;;;;10319442;28;20054;-73
2022/01/30 23:23:00;;;;;;;3.90;1.20;;;;;;;;;;10318544;28;20104;-75
2022/01/30 23:28:04;;;;;;;2.70;1.40;;;;;;;;;;10321271;28;20068;-75
2022/01/30 23:33:07;;;;;;;4.73;1.90;;;;;;;;;;10317937;28;20065;-75
2022/01/30 23:38:15;;;;;;;4.50;1.77;;;;;;;;;;10302776;28;20073;-76
2022/01/30 23:43:24;;;;;;;2.63;1.10;;;;;;;;;;10317901;28;20136;-75
2022/01/30 23:48:27;;;;;;;1.40;0.90;;;;;;;;;;10316981;28;20035;-75
2022/01/30 23:53:31;;;;;;;3.20;1.90;;;;;;;;;;10316610;28;20050;-74
2022/01/30 23:58:35;;;;;;;3.80;1.83;;;;;;;;;;10316312;28;20075;-75
